Time;durP1;ratioP1;P1;durP2;ratioP2;P2;SDS_P1;SDS_P2;PMS_P1;PMS_P2;Temp;Humidity;BMP_temperature;BMP_pressure;BME280_temperature;BME280_humidity;BME280_pressure;Samples;Min_cycle;Max_cycle;Signal;HPM_P1;HPM_P2
2021/01/14 00:01:00;;;;;;;6.80;1.60;;;;;;;0.75;95.47;101228.69;4971619;28;20065;-83
2021/01/14 00:03:25;;;;;;;8.40;1.77;;;;;;;0.74;96.33;101225.22;4968490;28;20081;-83
2021/01/14 00:05:51;;;;;;;7.30;1.50;;;;;;;0.67;95.83;101215.97;4961696;28;20098;-83
2021/01/14 00:08:16;;;;;;;6.15;1.63;;;;;;;0.64;95.78;101227.56;4968050;28;20582;-84
2021/01/14 00:10:42;;;;;;;9.82;2.10;;;;;;;0.59;95.02;101221.69;4966854;28;20043;-84
2021/01/14 00:13:08;;;;;;;8.73;2.25;;;;;;;0.64;96.36;101227.56;4969620;28;20054;-83
2021/01/14 00:15:34;;;;;;;9.43;1.95;;;;;;;0.58;95.89;101232.34;4970105;28;20043;-82
2021/01/14 00:17:59;;;;;;;7.47;1.70;;;;;;;0.55;95.40;101228.09;4966989;28;20042;-83
2021/01/14 00:20:27;;;;;;;7.97;1.80;;;;;;;0.58;96.07;101233.19;4971155;28;20515;-82
2021/01/14 00:22:52;;;;;;;5.45;1.77;;;;;;;0.45;94.24;101235.69;4966112;28;20093;-83
2021/01/14 00:25:19;;;;;;;6.85;1.42;;;;;;;0.52;95.91;101225.63;4962647;28;20103;-82
2021/01/14 00:27:45;;;;;;;7.82;1.48;;;;;;;0.49;95.07;101232.84;4967362;28;20035;-84
2021/01/14 00:30:17;;;;;;;8.45;1.70;;;;;;;0.53;96.98;101235.25;4970216;28;20366;-83
2021/01/14 00:32:43;;;;;;;7.28;1.25;;;;;;;0.43;95.79;101239.34;4971447;28;20071;-84
2021/01/14 00:35:09;;;;;;;6.10;1.60;;;;;;;0.36;94.82;101241.50;4970811;28;20414;-82
2021/01/14 00:37:50;;;;;;;7.78;1.60;;;;;;;0.38;96.11;101238.78;4970724;28;20043;-83
2021/01/14 00:40:20;;;;;;;7.53;1.90;;;;;;;0.41;98.27;101231.53;4959225;28;20494;-83
2021/01/14 00:42:45;;;;;;;9.93;2.47;;;;;;;0.36;97.67;101235.38;4968754;28;20101;-83
2021/01/14 00:45:12;;;;;;;8.23;1.98;;;;;;;0.34;97.91;101247.81;4964423;28;20042;-83
2021/01/14 00:47:38;;;;;;;7.88;1.75;;;;;;;0.28;97.40;101249.00;4971636;28;20776;-82
2021/01/14 00:50:05;;;;;;;8.48;1.67;;;;;;;0.21;97.05;101251.13;4968824;28;20047;-84
2021/01/14 00:52:31;;;;;;;11.73;2.15;;;;;;;0.21;97.88;101253.78;4971955;28;20100;-82
2021/01/14 00:54:56;;;;;;;6.93;1.65;;;;;;;0.24;99.45;101265.97;4985850;28;20129;-84
2021/01/14 00:57:22;;;;;;;8.05;2.10;;;;;;;0.19;97.35;101262.72;4969685;28;20046;-83
2021/01/14 00:59:47;;;;;;;5.45;1.65;;;;;;;0.18;97.29;101253.09;4970972;28;20133;-83
2021/01/14 01:02:13;;;;;;;10.98;2.20;;;;;;;0.22;98.39;101258.13;4967192;28;20066;-84
2021/01/14 01:04:42;;;;;;;9.30;1.60;;;;;;;0.19;96.82;101260.94;4970588;28;20199;-82
2021/01/14 01:07:08;;;;;;;7.65;1.80;;;;;;;0.23;95.87;101253.69;4983688;28;20039;-83
2021/01/14 01:09:33;;;;;;;5.25;1.48;;;;;;;0.24;95.28;101249.28;4968067;28;20035;-83
2021/01/14 01:11:59;;;;;;;6.47;1.60;;;;;;;0.19;95.48;101253.00;4967619;28;20130;-83
2021/01/14 01:14:24;;;;;;;7.97;1.55;;;;;;;0.21;96.47;101255.56;4982396;28;20460;-84
2021/01/14 01:16:54;;;;;;;8.40;1.73;;;;;;;0.22;96.22;101260.75;4968498;28;20093;-82
2021/01/14 01:19:19;;;;;;;5.65;1.92;;;;;;;0.24;96.61;101255.41;4970776;28;20093;-82
2021/01/14 01:21:45;;;;;;;5.95;1.77;;;;;;;0.22;95.25;101258.13;4986137;28;20456;-82
2021/01/14 01:24:11;;;;;;;10.00;2.15;;;;;;;0.24;95.34;101265.13;4967777;28;20031;-84
2021/01/14 01:26:36;;;;;;;6.32;1.60;;;;;;;0.26;96.12;101264.09;4968415;28;20129;-83
2021/01/14 01:29:01;;;;;;;7.50;1.63;;;;;;;0.19;94.82;101268.84;4970208;28;20046;-83
2021/01/14 01:31:27;;;;;;;4.80;1.73;;;;;;;0.27;97.36;101260.50;4972646;28;20046;-84
2021/01/14 01:33:52;;;;;;;7.90;1.80;;;;;;;0.22;97.65;101268.66;4986991;28;20429;-82
2021/01/14 01:36:18;;;;;;;6.82;2.35;;;;;;;0.16;96.25;101263.75;4969036;28;20105;-82
2021/01/14 01:38:43;;;;;;;7.57;2.33;;;;;;;0.19;97.55;101271.47;4968334;28;20083;-82
2021/01/14 01:41:09;;;;;;;7.20;2.40;;;;;;;0.11;95.55;101273.69;4968875;28;20074;-83
2021/01/14 01:43:34;;;;;;;8.43;1.98;;;;;;;0.11;96.61;101280.75;4969027;28;20117;-82
2021/01/14 01:46:01;;;;;;;8.50;2.47;;;;;;;0.16;98.72;101284.00;4976322;28;20154;-84
2021/01/14 01:48:27;;;;;;;6.82;2.17;;;;;;;0.22;99.60;101273.09;4992539;28;20406;-84
2021/01/14 01:50:58;;;;;;;10.40;2.25;;;;;;;0.19;99.35;101282.03;5007886;28;20062;-84
2021/01/14 01:53:25;;;;;;;6.25;1.73;;;;;;;0.13;97.91;101289.47;4969025;28;20047;-83
2021/01/14 01:55:51;;;;;;;8.10;2.28;;;;;;;0.14;98.78;101289.34;4968055;28;20038;-83
2021/01/14 01:58:21;;;;;;;10.25;2.20;;;;;;;0.17;99.56;101297.13;4969899;28;20046;-83
2021/01/14 02:00:46;;;;;;;7.65;1.70;;;;;;;0.11;97.67;101299.25;4969514;28;20054;-83
2021/01/14 02:03:12;;;;;;;8.07;2.03;;;;;;;0.11;98.85;101302.72;4968916;28;20062;-82
2021/01/14 02:05:38;;;;;;;5.55;1.95;;;;;;;0.11;98.63;101297.44;4969345;28;20050;-84
2021/01/14 02:08:06;;;;;;;6.45;1.85;;;;;;;0.17;99.19;101307.69;4967425;28;20126;-83
2021/01/14 02:10:35;;;;;;;7.22;2.25;;;;;;;0.14;99.59;101307.84;4972100;28;20053;-83
2021/01/14 02:13:35;;;;;;;5.68;1.90;;;;;;;0.11;100.00;101296.59;4969153;28;20611;-83
2021/01/14 02:16:02;;;;;;;7.82;2.17;;;;;;;-0.03;98.22;101294.72;4968425;28;20102;-83
2021/01/14 02:18:29;;;;;;;11.05;1.58;;;;;;;-0.01;99.82;101308.69;4985983;28;20435;-84
2021/01/14 02:21:04;;;;;;;10.00;1.85;;;;;;;0.04;100.00;101314.56;4972070;28;20057;-83
2021/01/14 02:23:40;;;;;;;6.93;2.20;;;;;;;-0.02;100.00;101307.00;4973314;28;20134;-84
2021/01/14 02:26:17;;;;;;;7.70;2.25;;;;;;;-0.04;100.00;101308.84;4971282;28;20186;-84
2021/01/14 02:28:44;;;;;;;13.73;2.38;;;;;;;-0.09;100.00;101316.16;4971184;28;20043;-84
2021/01/14 02:31:11;;;;;;;8.18;2.60;;;;;;;-0.08;100.00;101305.53;4972401;28;20081;-84
2021/01/14 02:33:37;;;;;;;9.05;2.22;;;;;;;-0.04;100.00;101314.13;4972694;28;20046;-83
2021/01/14 02:36:03;;;;;;;5.60;1.70;;;;;;;-0.06;100.00;101318.63;4970907;28;20042;-83
2021/01/14 02:38:29;;;;;;;7.80;2.00;;;;;;;-0.05;100.00;101317.72;4969650;28;20093;-84
2021/01/14 02:40:54;;;;;;;6.43;1.95;;;;;;;-0.08;100.00;101317.88;4970646;28;20062;-84
2021/01/14 02:43:20;;;;;;;10.32;2.00;;;;;;;-0.03;100.00;101329.00;4973865;28;20049;-83
2021/01/14 02:45:45;;;;;;;6.82;1.92;;;;;;;-0.15;98.84;101327.03;4970726;28;20543;-83
2021/01/14 02:48:14;;;;;;;7.05;1.80;;;;;;;-0.15;99.43;101329.69;4966920;28;20095;-84
2021/01/14 02:50:40;;;;;;;8.50;2.15;;;;;;;-0.03;100.00;101332.53;4969418;28;20528;-81
2021/01/14 02:53:08;;;;;;;8.10;2.10;;;;;;;-0.08;100.00;101337.19;4968356;28;20485;-82
2021/01/14 02:55:35;;;;;;;5.38;1.80;;;;;;;-0.06;100.00;101347.66;4971146;28;20502;-82
2021/01/14 02:58:00;;;;;;;6.72;2.17;;;;;;;-0.10;100.00;101348.75;4967921;28;20077;-83
2021/01/14 03:00:26;;;;;;;8.23;1.90;;;;;;;-0.02;100.00;101354.50;4970225;28;20054;-82
2021/01/14 03:02:51;;;;;;;7.18;2.13;;;;;;;-0.04;100.00;101356.34;4989146;28;20040;-83
2021/01/14 03:05:16;;;;;;;7.30;1.65;;;;;;;-0.12;100.00;101356.75;4970215;28;20043;-83
2021/01/14 03:07:42;;;;;;;6.97;2.05;;;;;;;-0.12;100.00;101363.81;4973028;28;20039;-83
2021/01/14 03:10:07;;;;;;;5.10;2.25;;;;;;;-0.11;100.00;101370.81;4956048;28;20039;-83
2021/01/14 03:12:33;;;;;;;6.13;1.90;;;;;;;-0.16;100.00;101370.19;4974657;28;20050;-82
2021/01/14 03:14:58;;;;;;;7.70;2.03;;;;;;;-0.11;100.00;101381.38;4972627;28;20046;-82
2021/01/14 03:17:23;;;;;;;8.30;2.10;;;;;;;-0.19;100.00;101379.13;4975315;28;20129;-83
2021/01/14 03:19:49;;;;;;;8.43;2.33;;;;;;;-0.14;100.00;101381.53;4974573;28;20131;-82
2021/01/14 03:22:14;;;;;;;5.93;1.90;;;;;;;-0.17;100.00;101379.03;4973542;28;20062;-83
2021/01/14 03:24:39;;;;;;;9.20;1.92;;;;;;;-0.15;100.00;101379.81;4972852;28;20091;-83
2021/01/14 03:27:06;;;;;;;9.32;2.17;;;;;;;-0.13;100.00;101386.72;4967065;28;20054;-82
2021/01/14 03:29:32;;;;;;;8.85;2.30;;;;;;;-0.18;100.00;101395.81;4972226;28;20073;-83
2021/01/14 03:32:01;;;;;;;7.95;2.50;;;;;;;-0.15;100.00;101391.22;4985194;28;20051;-83
2021/01/14 03:34:28;;;;;;;5.93;1.92;;;;;;;-0.18;100.00;101385.25;4968801;28;20055;-83
2021/01/14 03:37:02;;;;;;;9.35;2.15;;;;;;;-0.36;100.00;101387.91;4971380;28;20868;-82
2021/01/14 03:39:29;;;;;;;9.80;2.15;;;;;;;-0.24;100.00;101395.19;4984526;28;20050;-82
2021/01/14 03:41:55;;;;;;;4.78;1.90;;;;;;;-0.20;100.00;101395.91;4970526;28;20039;-83
2021/01/14 03:44:21;;;;;;;8.98;2.20;;;;;;;-0.21;100.00;101395.97;4970469;28;20047;-84
2021/01/14 03:46:50;;;;;;;10.38;2.08;;;;;;;-0.29;100.00;101402.50;4970685;28;20490;-83
2021/01/14 03:49:16;;;;;;;7.30;1.98;;;;;;;-0.29;100.00;101402.50;4968657;28;20046;-83
2021/01/14 03:51:44;;;;;;;9.02;2.40;;;;;;;-0.32;100.00;101404.44;4972190;28;20051;-82
2021/01/14 03:54:12;;;;;;;8.10;2.20;;;;;;;-0.36;100.00;101403.75;4967695;28;20138;-82
2021/01/14 03:56:39;;;;;;;11.50;2.20;;;;;;;-0.33;100.00;101403.59;4971628;28;20090;-81
2021/01/14 03:59:04;;;;;;;10.95;2.38;;;;;;;-0.40;100.00;101406.59;4969386;28;20035;-82
2021/01/14 04:01:31;;;;;;;7.68;2.22;;;;;;;-0.37;100.00;101402.03;4967345;28;20054;-82
2021/01/14 04:03:57;;;;;;;7.80;2.30;;;;;;;-0.30;100.00;101413.13;4968132;28;20050;-83
2021/01/14 04:06:37;;;;;;;9.63;3.17;;;;;;;-0.43;100.00;101407.63;4973006;28;20108;-83
2021/01/14 04:09:04;;;;;;;7.68;1.88;;;;;;;-0.44;100.00;101405.06;4971319;28;20070;-83
2021/01/14 04:11:29;;;;;;;7.00;2.05;;;;;;;-0.43;100.00;101406.75;4968924;28;20084;-83
2021/01/14 04:13:55;;;;;;;8.75;2.13;;;;;;;-0.41;100.00;101407.53;4973804;28;20055;-83
2021/01/14 04:16:21;;;;;;;5.13;1.77;;;;;;;-0.46;100.00;101403.38;4961133;28;20046;-82
2021/01/14 04:18:46;;;;;;;11.57;4.00;;;;;;;-0.52;100.00;101414.22;4973288;28;20053;-82
2021/01/14 04:21:16;;;;;;;8.88;3.53;;;;;;;-0.62;100.00;101412.97;4971680;28;20046;-84
2021/01/14 04:23:43;;;;;;;;;;;;;;;-0.55;100.00;101416.16;4991642;28;20046;-83
2021/01/14 04:26:08;;;;;;;8.80;4.13;;;;;;;-0.64;100.00;101411.34;4977603;28;19914;-83
2021/01/14 04:28:34;;;;;;;8.95;2.78;;;;;;;-0.68;100.00;101419.41;4976726;28;20159;-81
2021/01/14 04:31:00;;;;;;;8.52;2.85;;;;;;;-0.58;100.00;101418.94;4974938;28;20210;-82
2021/01/14 04:33:25;;;;;;;5.00;2.45;;;;;;;-0.54;100.00;101415.25;4974273;28;20051;-85
2021/01/14 04:35:52;;;;;;;7.68;2.88;;;;;;;-0.65;100.00;101422.84;4975351;28;20043;-84
2021/01/14 04:38:19;;;;;;;8.73;2.90;;;;;;;-0.55;100.00;101416.16;4969389;28;20070;-83
2021/01/14 04:40:45;;;;;;;6.78;3.20;;;;;;;-0.60;100.00;101421.69;4975296;28;20051;-87
2021/01/14 04:43:13;;;;;;;11.20;3.92;;;;;;;-0.65;100.00;101425.47;4973228;28;20062;-85
2021/01/14 04:45:43;;;;;;;9.57;4.05;;;;;;;-0.78;100.00;101423.41;4973470;28;20052;-85
2021/01/14 04:48:11;;;;;;;8.55;3.50;;;;;;;-0.70;100.00;101421.25;4972791;28;20043;-83
2021/01/14 04:50:39;;;;;;;8.45;3.45;;;;;;;-0.67;100.00;101415.00;4974299;28;20097;-83
2021/01/14 04:53:06;;;;;;;10.95;3.33;;;;;;;-0.71;100.00;101424.84;4973111;28;20045;-81
2021/01/14 04:55:44;;;;;;;9.70;3.78;;;;;;;-0.72;100.00;101423.16;4972004;28;20051;-82
2021/01/14 04:58:19;;;;;;;9.07;3.00;;;;;;;-0.76;100.00;101413.66;4969116;28;20116;-82
2021/01/14 05:00:50;;;;;;;13.68;3.55;;;;;;;-0.90;100.00;101421.41;4970763;28;20105;-83
2021/01/14 05:03:27;;;;;;;11.55;3.55;;;;;;;-0.84;100.00;101418.47;4982729;28;20397;-85
2021/01/14 05:05:55;;;;;;;7.68;2.90;;;;;;;-0.91;100.00;101411.81;4970915;28;20113;-84
2021/01/14 05:08:31;;;;;;;11.38;3.47;;;;;;;-0.91;100.00;101417.06;4970364;28;20057;-82
2021/01/14 05:10:58;;;;;;;8.55;2.53;;;;;;;-0.92;100.00;101418.00;4961863;28;20046;-81
2021/01/14 05:13:27;;;;;;;8.52;2.35;;;;;;;-1.04;100.00;101422.06;4971462;28;20042;-83
2021/01/14 05:15:53;;;;;;;6.20;2.40;;;;;;;-0.97;100.00;101434.03;4970835;28;20049;-82
2021/01/14 05:18:18;;;;;;;11.05;2.45;;;;;;;-1.00;100.00;101433.34;4971721;28;21388;-81
2021/01/14 05:20:43;;;;;;;6.55;2.33;;;;;;;-1.01;100.00;101431.59;4974152;28;20185;-84
2021/01/14 05:23:12;;;;;;;8.25;2.47;;;;;;;-1.05;100.00;101427.44;4972990;28;20173;-82
2021/01/14 05:25:51;;;;;;;10.70;2.67;;;;;;;-1.04;100.00;101426.50;4974049;28;20038;-82
2021/01/14 05:28:18;;;;;;;10.23;2.78;;;;;;;-0.94;100.00;101425.97;4970216;28;20195;-81
2021/01/14 05:30:43;;;;;;;7.38;2.28;;;;;;;-0.98;100.00;101436.72;4984176;28;20049;-87
2021/01/14 05:33:12;;;;;;;7.90;2.15;;;;;;;-1.00;100.00;101433.34;4970719;28;20051;-83
2021/01/14 05:35:47;;;;;;;13.10;2.72;;;;;;;-1.03;100.00;101438.75;4972733;28;20506;-81
2021/01/14 05:38:22;;;;;;;9.10;3.20;;;;;;;-1.03;100.00;101433.47;4972370;28;20035;-82
2021/01/14 05:41:10;;;;;;;7.53;2.85;;;;;;;-1.05;100.00;101440.59;4971812;28;20121;-81
2021/01/14 05:43:47;;;;;;;9.73;2.72;;;;;;;-1.11;100.00;101440.91;5017416;28;20153;-85
2021/01/14 05:46:20;;;;;;;7.80;2.67;;;;;;;-1.08;100.00;101444.22;4986447;28;21158;-83
2021/01/14 05:48:46;;;;;;;10.57;2.72;;;;;;;-1.06;100.00;101445.03;4973083;28;20121;-82
2021/01/14 05:51:16;;;;;;;11.88;3.00;;;;;;;-1.05;100.00;101454.63;4983249;28;20125;-81
2021/01/14 05:53:57;;;;;;;7.25;3.25;;;;;;;-1.26;100.00;101453.03;4967798;28;20082;-83
2021/01/14 05:56:45;;;;;;;5.93;2.58;;;;;;;-1.27;100.00;101461.81;4964694;28;20046;-82
2021/01/14 05:59:14;;;;;;;9.07;2.95;;;;;;;-1.34;100.00;101456.00;4968865;28;20042;-82
2021/01/14 06:01:55;;;;;;;8.50;2.63;;;;;;;-1.39;100.00;101455.34;4967256;28;20078;-82
2021/01/14 06:04:25;;;;;;;11.38;3.10;;;;;;;-1.31;100.00;101463.75;4967362;28;20051;-82
2021/01/14 06:06:52;;;;;;;10.88;3.55;;;;;;;-1.28;100.00;101470.66;4964789;28;20043;-82
2021/01/14 06:09:20;;;;;;;12.15;3.45;;;;;;;-1.36;100.00;101473.63;4967497;28;20057;-82
2021/01/14 06:11:46;;;;;;;7.97;3.33;;;;;;;-1.31;100.00;101469.03;4967712;28;20039;-82
2021/01/14 06:14:24;;;;;;;13.18;3.97;;;;;;;-1.45;100.00;101477.56;4961857;28;20090;-83
2021/01/14 06:16:50;;;;;;;9.05;3.50;;;;;;;-1.39;100.00;101469.38;4966822;28;20054;-82
2021/01/14 06:19:15;;;;;;;8.80;3.67;;;;;;;-1.54;100.00;101482.41;4966954;28;20047;-83
2021/01/14 06:21:49;;;;;;;10.45;3.67;;;;;;;-1.45;100.00;101480.19;4966297;28;20057;-84
2021/01/14 06:24:24;;;;;;;8.48;3.40;;;;;;;-1.42;100.00;101481.81;4970123;28;20130;-81
2021/01/14 06:26:51;;;;;;;9.07;3.65;;;;;;;-1.53;100.00;101486.72;4971402;28;20591;-82
2021/01/14 06:29:29;;;;;;;12.25;3.83;;;;;;;-1.41;100.00;101488.78;4984901;28;20046;-82
2021/01/14 06:32:17;;;;;;;11.25;3.70;;;;;;;-1.44;100.00;101500.34;4968820;28;20082;-82
2021/01/14 06:34:51;;;;;;;10.95;4.00;;;;;;;-1.45;100.00;101501.25;4974463;28;20454;-82
2021/01/14 06:37:22;;;;;;;10.88;3.88;;;;;;;-1.42;100.00;101502.88;4982714;28;20542;-82
2021/01/14 06:39:52;;;;;;;10.32;4.15;;;;;;;-1.40;100.00;101491.38;4967755;28;20082;-85
2021/01/14 06:42:23;;;;;;;15.57;5.97;;;;;;;-1.41;100.00;101494.94;4969949;28;20034;-83
2021/01/14 06:44:51;;;;;;;14.18;6.38;;;;;;;-1.37;100.00;101501.75;4970869;28;20054;-83
2021/01/14 06:47:41;;;;;;;12.63;6.22;;;;;;;-1.39;100.00;101508.00;4973135;28;20156;-86
2021/01/14 06:50:18;;;;;;;12.30;7.38;;;;;;;-1.40;100.00;101512.44;4973987;28;20023;-82
2021/01/14 06:52:53;;;;;;;9.68;5.07;;;;;;;-1.35;100.00;101517.50;4972797;28;20051;-83
2021/01/14 06:55:24;;;;;;;9.68;4.13;;;;;;;-1.37;100.00;101517.56;4983053;28;20410;-82
2021/01/14 06:58:31;;;;;;;11.25;3.60;;;;;;;-1.39;100.00;101523.81;4973049;28;20035;-82
2021/01/14 07:01:01;;;;;;;9.85;3.88;;;;;;;-1.43;100.00;101520.47;4973311;28;20047;-83
2021/01/14 07:03:50;;;;;;;13.77;4.50;;;;;;;-1.44;100.00;101524.03;4973599;28;20137;-82
2021/01/14 07:06:25;;;;;;;11.57;3.80;;;;;;;-1.45;100.00;101527.56;4970423;28;20494;-82
2021/01/14 07:09:14;;;;;;;8.80;4.03;;;;;;;-1.53;100.00;101528.84;4972565;28;20062;-84
2021/01/14 07:11:41;;;;;;;;;;;;;;;-1.52;100.00;101535.84;4983550;28;20043;-82
2021/01/14 07:14:23;;;;;;;12.18;5.20;;;;;;;-1.66;100.00;101529.41;4972833;28;19993;-84
2021/01/14 07:16:58;;;;;;;15.95;6.63;;;;;;;-1.71;100.00;101536.63;4973337;28;20397;-84
2021/01/14 07:19:23;;;;;;;12.35;5.13;;;;;;;-1.63;100.00;101541.56;4970280;28;20505;-83
2021/01/14 07:21:51;;;;;;;13.68;4.70;;;;;;;-1.63;100.00;101542.41;4964033;28;20074;-82
2021/01/14 07:24:23;;;;;;;13.82;4.97;;;;;;;-1.57;100.00;101549.19;4967888;28;20106;-85
2021/01/14 07:27:00;;;;;;;13.98;5.07;;;;;;;-1.62;100.00;101541.47;4970867;28;20035;-84
2021/01/14 07:29:26;;;;;;;9.00;4.18;;;;;;;-1.61;100.00;101553.75;4972335;28;20084;-82
2021/01/14 07:31:53;;;;;;;12.13;4.65;;;;;;;-1.57;100.00;101548.34;4970465;28;20086;-83
2021/01/14 07:34:42;;;;;;;12.88;4.13;;;;;;;-1.66;100.00;101560.97;4974392;28;20148;-83
2021/01/14 07:37:08;;;;;;;12.93;4.90;;;;;;;-1.74;100.00;101565.72;4973849;28;20448;-82
2021/01/14 07:39:57;;;;;;;11.35;5.10;;;;;;;-1.87;100.00;101569.78;4975434;28;20540;-83
2021/01/14 07:42:29;;;;;;;22.27;10.07;;;;;;;-1.82;100.00;101575.72;4973723;28;20054;-82
2021/01/14 07:44:58;;;;;;;35.95;13.85;;;;;;;-1.85;100.00;101575.84;4973081;28;20577;-83
2021/01/14 07:47:25;;;;;;;33.03;11.33;;;;;;;-1.85;100.00;101581.94;4975068;28;20061;-82
2021/01/14 07:49:51;;;;;;;56.35;21.77;;;;;;;-1.84;100.00;101577.56;4975681;28;20290;-82
2021/01/14 07:52:28;;;;;;;57.25;20.88;;;;;;;-1.90;100.00;101589.22;4973363;28;20035;-82
2021/01/14 07:55:05;;;;;;;45.60;16.88;;;;;;;-1.81;100.00;101590.59;4971823;28;20043;-84
2021/01/14 07:57:42;;;;;;;40.78;14.98;;;;;;;-1.74;100.00;101588.56;4962916;28;20050;-82
2021/01/14 08:00:19;;;;;;;38.05;15.73;;;;;;;-1.73;100.00;101606.03;4973922;28;20046;-83
2021/01/14 08:03:27;;;;;;;24.50;10.57;;;;;;;-1.83;100.00;101606.44;4973283;28;20408;-83
2021/01/14 08:05:59;;;;;;;21.33;7.70;;;;;;;-1.81;100.00;101609.03;4977633;28;20058;-85
2021/01/14 08:08:28;;;;;;;21.25;9.00;;;;;;;-1.76;100.00;101608.81;4970679;28;20079;-82
2021/01/14 08:11:12;;;;;;;19.90;7.13;;;;;;;-1.76;100.00;101606.16;4986667;28;20050;-82
2021/01/14 08:14:06;;;;;;;13.25;5.43;;;;;;;-1.77;100.00;101618.47;4985800;28;20055;-82
2021/01/14 08:16:32;;;;;;;15.95;6.30;;;;;;;-1.76;100.00;101619.34;4984930;28;20417;-83
2021/01/14 08:19:16;;;;;;;13.52;5.60;;;;;;;-1.79;100.00;101628.19;4974456;28;20035;-83
2021/01/14 08:21:43;;;;;;;14.15;5.80;;;;;;;-1.80;100.00;101623.88;4985556;28;20049;-83
2021/01/14 08:24:10;;;;;;;12.20;5.72;;;;;;;-1.78;100.00;101629.94;4974364;28;20094;-83
2021/01/14 08:26:55;;;;;;;14.13;5.93;;;;;;;-1.75;100.00;101627.19;4973633;28;20053;-82
2021/01/14 08:29:34;;;;;;;14.20;7.47;;;;;;;-1.76;100.00;101632.47;4973396;28;20050;-83
2021/01/14 08:32:00;;;;;;;15.65;8.73;;;;;;;-1.75;100.00;101637.69;4974390;28;20055;-83
2021/01/14 08:34:26;;;;;;;21.63;12.13;;;;;;;-1.75;100.00;101636.84;5006976;28;20449;-83
2021/01/14 08:36:56;;;;;;;21.42;11.32;;;;;;;-1.76;100.00;101638.59;4972458;28;20046;-84
2021/01/14 08:39:24;;;;;;;19.75;10.02;;;;;;;-1.82;100.00;101638.84;4968445;28;20171;-82
2021/01/14 08:41:51;;;;;;;16.43;8.53;;;;;;;-1.86;100.00;101640.78;4973357;28;20516;-83
2021/01/14 08:44:18;;;;;;;19.95;10.80;;;;;;;-1.82;100.00;101644.13;4973378;28;20117;-84
2021/01/14 08:46:48;;;;;;;27.50;12.57;;;;;;;-1.71;100.00;101660.31;4971712;28;20452;-84
2021/01/14 08:49:16;;;;;;;22.92;13.00;;;;;;;-1.69;100.00;101653.22;4987838;28;20063;-83
2021/01/14 08:51:42;;;;;;;19.85;11.52;;;;;;;-1.65;100.00;101659.22;4974729;28;20047;-83
2021/01/14 08:54:09;;;;;;;21.77;11.02;;;;;;;-1.65;100.00;101657.44;4972587;28;20127;-84
2021/01/14 08:56:47;;;;;;;25.50;13.18;;;;;;;-1.65;100.00;101653.94;4973049;28;20057;-82
2021/01/14 08:59:15;;;;;;;31.08;16.02;;;;;;;-1.75;100.00;101650.84;4968055;28;20523;-82
2021/01/14 09:08:24;;;;;;;43.75;20.65;;;;;;;-1.62;100.00;101667.81;4971691;28;20552;-82
2021/01/14 09:10:55;;;;;;;45.22;23.67;;;;;;;-1.49;100.00;101662.06;4973818;28;20038;-82
2021/01/14 09:13:22;;;;;;;34.42;20.65;;;;;;;-1.44;100.00;101665.34;4967168;28;20101;-81
2021/01/14 09:15:49;;;;;;;42.45;21.88;;;;;;;-1.47;100.00;101666.31;4969178;28;20043;-82
2021/01/14 09:18:17;;;;;;;43.08;24.40;;;;;;;-1.42;100.00;101668.75;4970102;28;20497;-82
2021/01/14 09:20:52;;;;;;;38.33;23.10;;;;;;;-1.30;100.00;101670.84;4985542;28;20709;-82
2021/01/14 09:23:20;;;;;;;39.08;23.95;;;;;;;-1.19;100.00;101675.66;4971352;28;20039;-83
2021/01/14 09:25:47;;;;;;;43.88;25.52;;;;;;;-1.13;100.00;101670.13;4972887;28;20129;-86
2021/01/14 09:28:14;;;;;;;40.58;24.00;;;;;;;-1.10;100.00;101670.00;4955683;28;20034;-82
2021/01/14 09:30:40;;;;;;;43.42;28.35;;;;;;;-1.04;100.00;101679.41;4973352;28;20039;-82
2021/01/14 09:33:05;;;;;;;47.30;28.48;;;;;;;-1.01;100.00;101676.63;4972972;28;20041;-83
2021/01/14 09:35:31;;;;;;;61.28;33.45;;;;;;;-1.06;100.00;101674.22;4989053;28;20043;-83
2021/01/14 09:37:56;;;;;;;37.85;19.77;;;;;;;-0.96;100.00;101666.75;4972925;28;20054;-83
2021/01/14 09:40:22;;;;;;;22.48;13.90;;;;;;;-1.04;100.00;101668.84;4971046;28;20050;-79
2021/01/14 09:42:50;;;;;;;22.42;12.50;;;;;;;-0.88;100.00;101667.25;4971994;28;20121;-81
2021/01/14 09:45:17;;;;;;;20.45;14.27;;;;;;;-0.76;100.00;101674.59;4969040;28;20055;-82
2021/01/14 09:47:47;;;;;;;23.77;16.17;;;;;;;-0.70;100.00;101674.31;4968144;28;20053;-83
2021/01/14 09:50:13;;;;;;;24.75;15.55;;;;;;;-0.69;100.00;101660.22;4969588;28;20522;-83
2021/01/14 09:52:38;;;;;;;18.25;11.40;;;;;;;-0.62;100.00;101655.53;4971790;28;20042;-82
2021/01/14 09:55:07;;;;;;;20.50;13.75;;;;;;;-0.61;100.00;101659.00;4970823;28;20109;-82
2021/01/14 09:57:37;;;;;;;25.92;16.35;;;;;;;-0.54;100.00;101663.09;4966120;28;20065;-83
2021/01/14 10:00:04;;;;;;;23.77;13.85;;;;;;;-0.48;100.00;101658.38;4971159;28;20042;-82
2021/01/14 10:02:35;;;;;;;25.17;15.23;;;;;;;-0.41;100.00;101666.84;4970074;28;20178;-82
2021/01/14 10:05:15;;;;;;;18.52;12.85;;;;;;;-0.34;100.00;101654.22;4964865;28;20039;-81
2021/01/14 10:07:45;;;;;;;14.98;8.98;;;;;;;-0.37;100.00;101657.88;4981646;28;20059;-81
2021/01/14 10:10:11;;;;;;;13.40;7.97;;;;;;;-0.37;100.00;101660.50;4984656;28;20039;-84
2021/01/14 10:12:37;;;;;;;17.17;8.77;;;;;;;-0.29;100.00;101658.38;4971674;28;20096;-82
2021/01/14 10:15:11;;;;;;;12.88;7.47;;;;;;;-0.24;100.00;101664.25;4969184;28;20076;-81
2021/01/14 10:17:40;;;;;;;16.38;7.45;;;;;;;-0.14;100.00;101666.47;4972526;28;20039;-82
2021/01/14 10:20:09;;;;;;;;;;;;;;;-0.09;100.00;101665.28;4973333;28;20068;-83
2021/01/14 10:22:53;;;;;;;14.32;6.57;;;;;;;-0.11;100.00;101661.03;4977246;28;19917;-80
2021/01/14 10:25:20;;;;;;;13.10;6.20;;;;;;;-0.03;100.00;101661.50;4977599;28;20379;-81
2021/01/14 10:27:59;;;;;;;12.52;5.38;;;;;;;-0.01;100.00;101654.38;4970804;28;20069;-81
2021/01/14 10:30:25;;;;;;;11.70;4.88;;;;;;;0.02;100.00;101659.50;4968825;28;20070;-81
2021/01/14 10:32:58;;;;;;;9.82;5.22;;;;;;;0.08;100.00;101664.47;4970067;28;20039;-81
2021/01/14 10:35:29;;;;;;;12.88;5.72;;;;;;;0.13;100.00;101659.81;4996139;28;20057;-81
2021/01/14 10:38:14;;;;;;;15.38;6.38;;;;;;;0.17;100.00;101657.88;4970577;28;20524;-81
2021/01/14 10:40:44;;;;;;;13.93;6.30;;;;;;;0.14;100.00;101650.97;4981756;28;20051;-83
2021/01/14 10:43:11;;;;;;;14.82;5.25;;;;;;;0.12;100.00;101642.28;4970294;28;20046;-81
2021/01/14 10:45:38;;;;;;;11.80;5.15;;;;;;;0.14;100.00;101650.97;4969299;28;20043;-82
2021/01/14 10:48:07;;;;;;;13.60;5.85;;;;;;;0.21;100.00;101652.38;4970167;28;20081;-81
2021/01/14 10:50:40;;;;;;;10.90;5.25;;;;;;;0.22;100.00;101654.09;4970956;28;20057;-82
2021/01/14 10:53:05;;;;;;;11.05;5.65;;;;;;;0.27;100.00;101655.66;4970105;28;20165;-81
2021/01/14 10:55:31;;;;;;;12.43;5.40;;;;;;;0.27;100.00;101653.00;4970561;28;20129;-83
2021/01/14 10:57:59;;;;;;;16.40;6.10;;;;;;;0.31;100.00;101654.56;4970628;28;20043;-83
2021/01/14 11:00:35;;;;;;;9.85;5.60;;;;;;;0.27;100.00;101655.66;4967434;28;20043;-82
2021/01/14 11:03:02;;;;;;;13.95;6.03;;;;;;;0.32;100.00;101653.66;4969020;28;20050;-83
2021/01/14 11:05:48;;;;;;;10.75;5.60;;;;;;;0.30;100.00;101659.00;4970598;28;20045;-82
2021/01/14 11:08:24;;;;;;;14.30;6.32;;;;;;;0.30;100.00;101653.72;4962303;28;20121;-82
2021/01/14 11:11:12;;;;;;;15.15;6.72;;;;;;;0.35;100.00;101645.56;4970847;28;20489;-83
2021/01/14 11:13:46;;;;;;;14.30;6.25;;;;;;;0.29;100.00;101652.00;4982387;28;20069;-81
2021/01/14 11:16:15;;;;;;;11.32;6.22;;;;;;;0.31;100.00;101651.91;4968839;28;20038;-82
2021/01/14 11:18:43;;;;;;;15.65;7.43;;;;;;;0.34;100.00;101647.31;4967226;28;20412;-82
2021/01/14 11:21:09;;;;;;;14.48;7.15;;;;;;;0.33;100.00;101650.06;4968654;28;20494;-82
2021/01/14 11:23:35;;;;;;;14.05;7.20;;;;;;;0.36;100.00;101655.19;4969115;28;20109;-82
2021/01/14 11:26:04;;;;;;;15.07;8.05;;;;;;;0.37;100.00;101652.44;4967972;28;20541;-82
2021/01/14 11:28:41;;;;;;;16.27;7.68;;;;;;;0.43;100.00;101648.66;4969976;28;20060;-82
2021/01/14 11:31:07;;;;;;;25.25;8.40;;;;;;;0.42;100.00;101650.44;4972979;28;20043;-82
2021/01/14 11:33:33;;;;;;;13.23;7.22;;;;;;;0.39;100.00;101658.50;4972806;28;20051;-82
2021/01/14 11:35:58;;;;;;;14.93;8.32;;;;;;;0.44;100.00;101653.88;4973446;28;20409;-82